Wetterdaten: aktuell Freitag, 22.11.2019 23:15
Datum Zeit Temp. I. Temp. A. Feuchte I. Feuchte A. Luftdruck Regen Wind Richtung Richtung Taupunkt Windchill Windben Empfang
22.11.2019 23:15 23,1 C 8,9 C 46 % 70 % 1013,0 hPa 0,0 l/m 4,8 km/h S 180 3,7 C 8,6 C 12,9 km/h 65,79 %
22.11.2019 22:15 23,4 C 9,1 C 46 % 71 % 1013,0 hPa 0,0 l/m 6,4 km/h S-SO 157 4,1 C 8,3 C 22,5 km/h 66,67 %
22.11.2019 21:15 23,6 C 9,2 C 46 % 71 % 1013,1 hPa 0,0 l/m 4,8 km/h S-SW 202 4,2 C 8,9 C 12,9 km/h 64,91 %
22.11.2019 20:15 23,4 C 9,1 C 46 % 70 % 1013,1 hPa 0,0 l/m 4,8 km/h S-SO 157 3,9 C 8,8 C 14,5 km/h 73,68 %
22.11.2019 19:15 23,1 C 9,6 C 46 % 71 % 1012,9 hPa 0,0 l/m 4,8 km/h S 180 4,6 C 9,4 C 14,5 km/h 74,56 %
22.11.2019 18:15 22,7 C 9,6 C 47 % 71 % 1012,7 hPa 0,0 l/m 4,8 km/h SO 135 4,6 C 9,4 C 12,9 km/h 72,81 %
22.11.2019 17:15 23,1 C 9,3 C 46 % 75 % 1012,7 hPa 0,0 l/m 4,8 km/h S-SW 202 5,1 C 9,0 C 12,9 km/h 74,56 %
22.11.2019 16:15 23,1 C 9,9 C 48 % 76 % 1012,1 hPa 0,0 l/m 3,2 km/h SO 135 5,9 C 9,9 C 17,7 km/h 75,44 %
22.11.2019 15:15 23,4 C 10,6 C 49 % 77 % 1011,9 hPa 0,0 l/m 1,6 km/h S-SW 202 6,7 C 10,6 C 9,7 km/h 74,56 %
22.11.2019 14:15 23,8 C 11,2 C 48 % 77 % 1011,6 hPa 0,0 l/m 3,2 km/h SW 225 7,3 C 11,2 C 17,7 km/h 74,56 %
22.11.2019 13:15 23,9 C 11,2 C 47 % 77 % 1011,9 hPa 0,0 l/m 1,6 km/h S-SO 157 7,3 C 11,2 C 11,3 km/h 69,30 %
22.11.2019 12:15 24,3 C 10,2 C 47 % 76 % 1012,6 hPa 0,0 l/m 3,2 km/h S-SW 202 6,2 C 10,2 C 16,1 km/h 73,68 %
22.11.2019 11:15 24,3 C 11,1 C 47 % 76 % 1012,8 hPa 0,0 l/m 1,6 km/h S 180 7,0 C 11,1 C 9,7 km/h 70,18 %
22.11.2019 10:15 24,4 C 9,9 C 47 % 71 % 1013,1 hPa 0,0 l/m 6,4 km/h S-SO 157 4,9 C 9,3 C 14,5 km/h 73,68 %
22.11.2019 09:15 24,2 C 9,7 C 48 % 68 % 1012,9 hPa 0,0 l/m 3,2 km/h S-SO 157 4,1 C 9,7 C 11,3 km/h 73,68 %
22.11.2019 08:15 24,2 C 9,1 C 48 % 59 % 1012,6 hPa 0,0 l/m 3,2 km/h SO 135 1,5 C 9,1 C 9,7 km/h 73,68 %
22.11.2019 07:15 24,1 C 8,7 C 46 % 52 % 1012,2 hPa 0,0 l/m 3,2 km/h O-SO 112 -0,6 C 8,7 C 12,9 km/h 73,68 %
22.11.2019 06:15 23,8 C 8,4 C 46 % 58 % 1012,0 hPa 0,0 l/m 4,8 km/h S-SO 157 0,6 C 8,0 C 20,9 km/h 73,68 %
22.11.2019 05:15 23,4 C 8,8 C 47 % 66 % 1011,6 hPa 0,0 l/m 4,8 km/h S 180 2,8 C 8,5 C 11,3 km/h 76,32 %
22.11.2019 04:15 22,1 C 8,9 C 49 % 67 % 1011,8 hPa 0,0 l/m 3,2 km/h S 180 3,1 C 8,9 C 8,0 km/h 72,81 %
22.11.2019 03:15 22,2 C 9,6 C 48 % 72 % 1011,6 hPa 0,0 l/m 3,2 km/h O-NO 67 4,8 C 9,6 C 11,3 km/h 68,42 %
22.11.2019 02:15 22,3 C 9,8 C 48 % 74 % 1011,8 hPa 0,0 l/m 1,6 km/h SO 135 5,4 C 9,8 C 4,8 km/h 72,81 %
22.11.2019 01:15 22,4 C 10,1 C 48 % 75 % 1012,0 hPa 0,0 l/m 1,6 km/h O 90 5,9 C 10,1 C 4,8 km/h 74,56 %
22.11.2019 00:15 22,5 C 9,9 C 48 % 74 % 1012,0 hPa 0,0 l/m 0,0 km/h O 90 5,5 C 9,9 C 3,2 km/h 72,81 %
22.11.2019 00:00 22,6 C 10,1 C 48 % 75 % 1011,9 hPa 0,0 l/m 0,0 km/h W-NW 292 5,9 C 10,1 C 3,2 km/h 71,93 %
_ Min-Zeit 04:25 06:30 17:00 07:25 14:25 - 16:05 - - 06:55 06:30 15:25 23:00
Minimum _ 22,1 C 8,4 C 45 % 51 % 1011,5 hPa - 0,0 km/h - - -1,0 C 7,5 C 1,6 km/h 23,68 %
_ Max-Zeit 11:00 13:10 15:40 15:45 19:55 23:15 22:40 - - 14:20 14:20 19:30 18:35
Maximum _ 24,4 C 11,3 C 49 % 77 % 1013,3 hPa 0,0 l/m 9,7 km/h
S-SO
- - 7,3 C 11,2 C 29,0 km/h
SO
77,19 %
Durchschnitt _ 23,4 C 9,6 C 47 % 70 % 1012,4 hPa #0,0 l/m 4,0 km/h S-SW - 4,5 C 9,4 C 13,5 km/h 72,56 %